Date,TemperatureHighF,TemperatureAvgF,TemperatureLowF,DewpointHighF,DewpointAvgF,DewpointLowF,HumidityHigh,HumidityAvg,HumidityLow,PressureMaxIn,PressureMinIn,WindSpeedMaxMPH,WindSpeedAvgMPH,GustSpeedMaxMPH,PrecipitationSumIn
2013-1-1,33,27,11,27,18,2,84,70,54,30.01,29.88,8,1,11,0.00
2013-1-2,37,14,3,14,2,-6,72,60,34,30.11,29.98,5,0,7,0.01
2013-1-3,40,18,0,15,5,-10,71,56,27,30.14,30.03,9,1,14,0.00
2013-1-4,40,28,19,19,14,9,65,56,40,30.18,30.10,9,1,16,0.01
2013-1-5,45,27,11,24,15,3,76,63,40,30.24,30.02,4,0,7,0.11
2013-1-6,40,33,26,28,23,17,77,68,60,30.17,29.88,10,2,18,0.01
2013-1-7,42,28,14,24,17,7,75,65,43,30.34,30.13,5,1,8,0.00
2013-1-8,57,27,13,34,17,5,81,67,30,30.22,30.11,4,0,6,0.00
2013-1-9,55,36,23,38,28,18,85,73,46,30.39,30.08,7,0,11,0.08
2013-1-10,38,32,22,28,24,17,84,72,61,30.44,30.06,5,1,8,0.00
2013-1-11,61,44,36,53,38,26,90,79,61,30.07,29.80,7,0,9,0.33
2013-1-12,68,53,35,57,48,32,91,84,61,29.95,29.77,7,0,11,0.02
2013-1-13,63,57,39,56,51,35,89,81,68,29.94,29.69,14,2,22,0.30
2013-1-14,38,30,24,35,21,16,86,70,63,30.29,29.94,10,3,14,0.00
2013-1-15,24,23,22,17,16,15,75,73,71,30.24,30.18,5,2,8,0.00
2013-1-16,33,31,29,22,20,18,66,63,56,30.22,29.84,4,1,6,0.00
2013-1-17,36,32,30,25,23,21,79,70,58,30.07,29.82,2,1,4,0.00
2013-1-18,36,28,14,24,14,4,73,57,40,30.35,30.01,10,2,13,0.00
2013-1-19,53,39,28,25,19,14,61,46,25,30.20,29.76,5,3,8,0.00
2013-1-20,42,30,22,29,10,4,61,44,30,30.06,29.74,15,4,25,0.00
2013-1-21,26,19,8,12,4,-12,67,52,36,30.03,29.87,13,3,23,0.00
2013-1-22,18,9,4,-5,-12,-16,44,37,27,30.18,30.03,10,3,15,0.00
2013-1-23,21,13,4,6,-4,-12,64,46,28,30.17,29.93,7,1,12,0.00
2013-1-24,25,15,8,7,2,-3,66,55,39,30.40,29.93,11,3,16,0.00
2013-1-25,25,18,14,13,4,-3,74,55,42,30.34,29.88,5,1,10,0.00
2013-1-26,34,24,10,17,12,-2,76,62,44,30.31,29.96,9,2,14,0.00
2013-1-27,40,22,2,23,8,-7,73,55,38,30.36,30.11,6,1,9,0.13
2013-1-28,47,40,31,44,36,24,90,86,74,30.11,29.90,4,0,8,0.26
2013-1-29,70,54,45,54,47,42,91,78,52,29.95,29.59,9,1,19,0.01
2013-1-30,61,53,33,53,45,25,83,75,66,29.59,28.73,11,2,23,0.45
2013-1-31,33,25,17,25,14,4,74,63,42,29.78,29.32,13,4,24,0.00